Time;durP1;ratioP1;P1;durP2;ratioP2;P2;SDS_P1;SDS_P2;PMS_P1;PMS_P2;Temp;Humidity;BMP_temperature;BMP_pressure;BME280_temperature;BME280_humidity;BME280_pressure;Samples;Min_cycle;Max_cycle;Signal;HPM_P1;HPM_P2
2022/11/28 00:01:21;;;;;;;4.93;2.67;;;;;;;6.58;nan;-24000.59;5034502;28;20666;-79
2022/11/28 00:03:47;;;;;;;3.77;2.73;;;;;;;6.25;nan;-23991.22;5033183;28;20176;-78
2022/11/28 00:06:13;;;;;;;2.70;2.50;;;;;;;6.70;nan;-24003.88;5034248;28;20168;-79
2022/11/28 00:08:38;;;;;;;4.30;2.50;;;;;;;6.66;nan;-24002.88;5033121;28;20183;-78
2022/11/28 00:11:06;;;;;;;3.97;2.87;;;;;;;6.43;nan;-23996.34;5032981;28;20701;-77
2022/11/28 00:13:32;;;;;;;3.20;2.50;;;;;;;6.65;nan;-24002.59;5034231;28;20254;-77
2022/11/28 00:15:59;;;;;;;6.50;2.80;;;;;;;6.10;nan;-23987.25;5034065;28;20290;-79
2022/11/28 00:18:25;;;;;;;6.97;2.53;;;;;;;5.71;nan;-23976.16;5034100;28;20182;-79
2022/11/28 00:20:50;;;;;;;4.40;2.93;;;;;;;5.92;nan;-23982.16;5032121;28;20176;-78
2022/11/28 00:23:16;;;;;;;3.97;2.73;;;;;;;5.98;nan;-23983.72;5030895;28;20183;-79
2022/11/28 00:25:41;;;;;;;5.00;2.73;;;;;;;5.82;nan;-23979.16;5032475;28;20559;-77
2022/11/28 00:28:07;;;;;;;3.80;2.83;;;;;;;6.25;nan;-23991.22;5033762;28;20623;-78
2022/11/28 00:30:37;;;;;;;4.27;3.00;;;;;;;5.89;nan;-23981.16;5033611;28;20172;-77
2022/11/28 00:33:03;;;;;;;5.40;3.17;;;;;;;6.29;nan;-23992.38;5033706;28;20230;-78
2022/11/28 00:35:28;;;;;;;3.67;3.17;;;;;;;5.95;nan;-23983.00;5033339;28;20245;-79
2022/11/28 00:37:54;;;;;;;3.57;2.67;;;;;;;5.71;nan;-23976.16;5031816;28;20725;-77
2022/11/28 00:40:19;;;;;;;6.13;3.33;;;;;;;2.54;nan;-23887.03;5032782;28;20168;-79
2022/11/28 00:42:45;;;;;;;6.30;2.50;;;;;;;6.15;nan;-23988.69;5031606;28;20673;-78
2022/11/28 00:45:10;;;;;;;6.17;3.47;;;;;;;6.04;nan;-23985.41;5032993;28;20206;-80
2022/11/28 00:47:35;;;;;;;4.13;3.43;;;;;;;5.74;nan;-23977.16;5033489;28;20233;-80
2022/11/28 00:50:01;;;;;;;2.70;2.33;;;;;;;5.71;nan;-23976.16;5033693;28;20686;-80
2022/11/28 00:52:26;;;;;;;6.10;3.33;;;;;;;5.60;nan;-23973.19;5033634;28;20180;-78
2022/11/28 00:54:52;;;;;;;4.30;3.10;;;;;;;5.66;nan;-23974.75;5033799;28;20701;-77
2022/11/28 00:57:17;;;;;;;4.07;3.33;;;;;;;5.27;nan;-23963.94;5032099;28;20179;-79
2022/11/28 00:59:43;;;;;;;4.63;3.40;;;;;;;5.31;nan;-23964.94;5033290;28;20167;-79
2022/11/28 01:02:08;;;;;;;4.00;2.67;;;;;;;5.36;nan;-23966.22;5033095;28;20310;-78
2022/11/28 01:04:34;;;;;;;5.53;3.07;;;;;;;5.06;nan;-23957.97;5033213;28;20236;-79
2022/11/28 01:06:59;;;;;;;8.07;3.00;;;;;;;5.26;nan;-23963.66;5031799;28;20248;-80
2022/11/28 01:09:24;;;;;;;4.23;2.63;;;;;;;5.14;nan;-23960.25;5031624;28;20194;-79
2022/11/28 01:11:52;;;;;;;3.73;2.93;;;;;;;5.56;nan;-23972.06;5031563;28;20182;-77
2022/11/28 01:14:20;;;;;;;6.97;2.73;;;;;;;5.48;nan;-23969.78;5033075;28;20255;-76
2022/11/28 01:16:46;;;;;;;4.40;2.63;;;;;;;4.85;nan;-23952.16;5032578;28;20656;-78
2022/11/28 01:19:12;;;;;;;3.90;2.50;;;;;;;4.78;nan;-23950.16;5032821;28;20203;-80
2022/11/28 01:21:38;;;;;;;3.07;2.37;;;;;;;5.05;nan;-23957.69;5032455;28;20172;-77
2022/11/28 01:24:03;;;;;;;3.37;2.50;;;;;;;4.99;nan;-23955.84;5032891;28;20186;-78
2022/11/28 01:26:30;;;;;;;3.90;2.53;;;;;;;4.89;nan;-23953.13;5032237;28;20175;-77
2022/11/28 01:28:55;;;;;;;5.03;2.67;;;;;;;5.05;nan;-23957.53;5032717;28;20659;-79
2022/11/28 01:31:24;;;;;;;2.47;2.17;;;;;;;5.03;nan;-23956.97;5032652;28;20163;-78
2022/11/28 01:33:50;;;;;;;2.83;2.63;;;;;;;4.61;nan;-23945.31;5032667;28;20168;-76
2022/11/28 01:36:17;;;;;;;3.37;2.17;;;;;;;4.89;nan;-23953.13;5032265;28;20209;-78
2022/11/28 01:38:43;;;;;;;2.93;2.60;;;;;;;4.61;nan;-23945.16;5032508;28;20160;-77
2022/11/28 01:41:09;;;;;;;6.63;3.23;;;;;;;4.58;nan;-23944.31;5032932;28;20217;-78
2022/11/28 01:43:35;;;;;;;3.93;3.00;;;;;;;4.53;nan;-23943.03;5032645;28;20303;-79
2022/11/28 01:46:01;;;;;;;2.17;1.90;;;;;;;4.63;nan;-23945.88;5032483;28;20269;-79
2022/11/28 01:48:31;;;;;;;4.20;2.53;;;;;;;4.74;nan;-23949.00;5032922;28;20341;-78
2022/11/28 01:51:03;;;;;;;8.20;2.50;;;;;;;4.72;nan;-23948.44;5030688;28;20184;-79
2022/11/28 01:53:31;;;;;;;3.87;2.83;;;;;;;4.49;nan;-23941.91;5032505;28;20190;-78
2022/11/28 01:56:14;;;;;;;3.40;2.47;;;;;;;4.79;nan;-23950.44;5030985;28;20210;-77
2022/11/28 01:58:44;;;;;;;4.23;2.37;;;;;;;4.77;nan;-23949.72;5032015;28;20263;-79
2022/11/28 02:01:10;;;;;;;3.40;2.57;;;;;;;4.56;nan;-23943.88;5037312;28;20226;-76
2022/11/28 02:03:48;;;;;;;4.13;2.27;;;;;;;4.84;nan;-23951.72;5042055;28;20168;-80
2022/11/28 02:06:17;;;;;;;5.07;2.97;;;;;;;4.81;nan;-23950.84;5031182;28;20183;-77
2022/11/28 02:08:43;;;;;;;2.87;2.30;;;;;;;4.72;nan;-23948.31;5031287;28;20639;-78
2022/11/28 02:11:27;;;;;;;3.27;2.70;;;;;;;4.79;nan;-23950.28;5030473;28;20199;-77
2022/11/28 02:14:10;;;;;;;4.77;2.53;;;;;;;4.61;nan;-23945.16;5030825;28;20183;-80
2022/11/28 02:16:50;;;;;;;4.10;2.73;;;;;;;4.64;nan;-23946.16;5030560;28;20568;-76
2022/11/28 02:19:40;;;;;;;4.27;2.47;;;;;;;4.68;nan;-23947.31;5031804;28;20206;-79
2022/11/28 02:22:18;;;;;;;2.70;2.10;;;;;;;4.67;nan;-23947.03;5030234;28;20274;-80
2022/11/28 02:25:03;;;;;;;2.50;2.10;;;;;;;4.57;nan;-23944.03;5032020;28;20648;-78
2022/11/28 02:27:54;;;;;;;2.40;1.97;;;;;;;4.52;nan;-23942.59;5030577;28;20241;-80
2022/11/28 02:30:28;;;;;;;4.03;2.63;;;;;;;4.47;nan;-23941.19;5032084;28;20174;-78
2022/11/28 02:33:03;;;;;;;3.07;2.57;;;;;;;4.24;nan;-23934.91;5031819;28;20306;-78
2022/11/28 02:35:40;;;;;;;3.73;2.43;;;;;;;4.57;nan;-23944.03;5030401;28;20202;-78
2022/11/28 02:38:28;;;;;;;4.03;2.97;;;;;;;4.24;nan;-23934.91;5031512;28;20182;-81
2022/11/28 02:40:54;;;;;;;4.97;2.70;;;;;;;4.67;nan;-23947.03;5031612;28;20203;-82
2022/11/28 02:43:50;;;;;;;5.57;2.60;;;;;;;4.51;nan;-23942.31;5031453;28;20597;-77
2022/11/28 02:46:24;;;;;;;5.77;3.13;;;;;;;4.08;nan;-23930.38;5031838;28;20646;-77
2022/11/28 02:49:10;;;;;;;3.77;2.63;;;;;;;4.28;nan;-23935.91;5031762;28;20167;-79
2022/11/28 02:51:47;;;;;;;2.80;2.33;;;;;;;4.22;nan;-23934.22;5031201;28;20172;-77
2022/11/28 02:54:16;;;;;;;3.63;2.70;;;;;;;4.30;nan;-23936.50;5031522;28;20581;-81
2022/11/28 02:56:50;;;;;;;3.20;2.80;;;;;;;4.28;nan;-23936.06;5030345;28;20184;-82
2022/11/28 02:59:36;;;;;;;2.93;2.43;;;;;;;4.37;nan;-23938.47;5030360;28;20187;-83
2022/11/28 03:02:32;;;;;;;4.00;2.53;;;;;;;4.48;nan;-23941.47;5029855;28;20657;-82
2022/11/28 03:05:33;;;;;;;5.33;2.80;;;;;;;4.53;nan;-23942.91;5029581;28;20179;-82
2022/11/28 03:08:21;;;;;;;4.50;2.53;;;;;;;4.49;nan;-23941.75;5021265;28;20214;-80
2022/11/28 03:10:58;;;;;;;5.47;3.40;;;;;;;4.28;nan;-23936.06;5031411;28;20168;-82
2022/11/28 03:13:36;;;;;;;2.33;2.13;;;;;;;4.37;nan;-23938.47;5029739;28;20229;-80
2022/11/28 03:16:26;;;;;;;2.63;2.43;;;;;;;4.63;nan;-23945.75;5031776;28;20207;-80
2022/11/28 03:19:13;;;;;;;2.87;2.43;;;;;;;4.26;nan;-23935.50;5029729;28;20274;-82
2022/11/28 03:22:03;;;;;;;5.13;2.83;;;;;;;4.36;nan;-23938.19;5035222;28;20181;-82
2022/11/28 03:24:41;;;;;;;4.10;2.53;;;;;;;4.28;nan;-23935.91;5035296;28;20183;-81
2022/11/28 03:27:34;;;;;;;4.43;3.03;;;;;;;4.07;nan;-23930.06;5035189;28;20187;-79
2022/11/28 03:30:12;;;;;;;5.97;2.37;;;;;;;4.19;nan;-23933.34;5033755;28;20275;-80
2022/11/28 03:32:40;;;;;;;4.97;2.50;;;;;;;4.17;nan;-23932.94;5033626;28;20183;-83
2022/11/28 03:35:18;;;;;;;2.50;2.30;;;;;;;4.36;nan;-23938.34;5035316;28;20274;-83
2022/11/28 03:37:52;;;;;;;3.13;2.40;;;;;;;4.03;nan;-23928.78;5034472;28;20176;-81
2022/11/28 03:40:24;;;;;;;3.83;2.47;;;;;;;4.28;nan;-23935.91;5031342;28;20205;-80
2022/11/28 03:43:10;;;;;;;4.37;2.37;;;;;;;4.14;nan;-23932.06;5032589;28;20218;-81
2022/11/28 03:45:39;;;;;;;4.33;2.97;;;;;;;3.92;nan;-23925.94;5034195;28;20208;-80
2022/11/28 03:48:20;;;;;;;4.23;2.77;;;;;;;4.15;nan;-23932.34;5034423;28;20215;-80
2022/11/28 03:51:04;;;;;;;2.27;2.07;;;;;;;4.14;nan;-23931.94;5033129;28;20296;-83
2022/11/28 03:53:39;;;;;;;3.23;2.50;;;;;;;4.15;nan;-23932.34;5034339;28;20175;-80
2022/11/28 03:56:16;;;;;;;4.10;2.63;;;;;;;4.16;nan;-23932.50;5033895;28;20202;-83
2022/11/28 03:59:14;;;;;;;2.80;2.40;;;;;;;4.41;nan;-23939.75;5031750;28;20723;-83
2022/11/28 04:01:39;;;;;;;4.07;3.00;;;;;;;4.28;nan;-23935.91;5025393;28;20606;-81
2022/11/28 04:04:15;;;;;;;4.37;3.23;;;;;;;4.28;nan;-23936.06;5033254;28;20184;-83
2022/11/28 04:06:56;;;;;;;4.00;2.43;;;;;;;4.23;nan;-23934.50;5034971;28;20174;-80
2022/11/28 04:09:37;;;;;;;3.20;2.20;;;;;;;3.97;nan;-23927.38;5034734;28;20262;-80
2022/11/28 04:12:09;;;;;;;3.80;2.63;;;;;;;4.05;nan;-23929.38;5033296;28;20186;-80
2022/11/28 04:14:43;;;;;;;4.93;3.13;;;;;;;4.17;nan;-23932.78;5034522;28;20210;-81
2022/11/28 04:17:37;;;;;;;3.10;2.53;;;;;;;4.00;nan;-23928.09;5034538;28;20176;-80
2022/11/28 04:20:38;;;;;;;4.17;2.40;;;;;;;3.74;nan;-23920.69;5032175;28;20195;-81
2022/11/28 04:23:10;;;;;;;4.07;2.33;;;;;;;4.08;nan;-23930.22;5033780;28;20194;-78
2022/11/28 04:25:39;;;;;;;2.97;2.53;;;;;;;4.06;nan;-23929.66;5034501;28;20186;-78
2022/11/28 04:28:13;;;;;;;5.70;2.10;;;;;;;3.93;nan;-23926.09;5035561;28;20183;-81
2022/11/28 04:30:41;;;;;;;3.87;2.73;;;;;;;4.25;nan;-23935.22;5035316;28;20637;-78
2022/11/28 04:33:10;;;;;;;5.83;2.17;;;;;;;4.39;nan;-23939.19;5034898;28;20184;-80
2022/11/28 04:35:41;;;;;;;6.27;3.03;;;;;;;3.99;nan;-23927.94;5035365;28;20203;-79
2022/11/28 04:38:10;;;;;;;4.57;2.83;;;;;;;4.00;nan;-23928.09;5034459;28;20237;-83
2022/11/28 04:40:43;;;;;;;5.50;3.00;;;;;;;4.08;nan;-23930.38;5036105;28;20585;-81
2022/11/28 04:43:17;;;;;;;5.80;3.17;;;;;;;4.36;nan;-23938.19;5041254;28;20182;-78
2022/11/28 04:45:53;;;;;;;4.60;3.10;;;;;;;4.36;nan;-23938.34;5038963;28;20179;-82
2022/11/28 04:48:19;;;;;;;3.20;2.50;;;;;;;4.11;nan;-23931.22;5036976;28;20183;-81
2022/11/28 04:51:00;;;;;;;3.20;2.10;;;;;;;4.36;nan;-23938.34;5036290;28;20199;-83
2022/11/28 04:54:00;;;;;;;3.47;2.70;;;;;;;4.45;nan;-23940.91;5034519;28;20214;-80
2022/11/28 04:56:53;;;;;;;5.57;2.90;;;;;;;4.44;nan;-23940.63;5035060;28;20257;-83
2022/11/28 04:59:21;;;;;;;3.87;2.90;;;;;;;4.53;nan;-23943.03;5035497;28;20187;-82
2022/11/28 05:01:48;;;;;;;5.87;3.20;;;;;;;4.45;nan;-23940.75;5034437;28;20828;-78
2022/11/28 05:04:16;;;;;;;6.93;4.13;;;;;;;4.56;nan;-23943.88;5034838;28;20187;-80
2022/11/28 05:06:41;;;;;;;2.97;2.23;;;;;;;4.35;nan;-23937.91;5036053;28;20244;-82
2022/11/28 05:09:10;;;;;;;3.27;2.50;;;;;;;4.77;nan;-23949.72;5034222;28;20194;-80
2022/11/28 05:11:35;;;;;;;2.70;2.20;;;;;;;4.38;nan;-23938.75;5032859;28;20249;-79
2022/11/28 05:14:01;;;;;;;4.40;2.87;;;;;;;4.58;nan;-23944.31;5035443;28;20183;-81
2022/11/28 05:16:26;;;;;;;3.67;2.87;;;;;;;4.63;nan;-23945.88;5034949;28;20338;-81
2022/11/28 05:18:52;;;;;;;3.83;3.23;;;;;;;4.57;nan;-23944.03;5035507;28;20210;-79
2022/11/28 05:21:17;;;;;;;4.13;2.80;;;;;;;4.84;nan;-23951.72;5052821;28;20187;-81
2022/11/28 05:23:44;;;;;;;4.50;2.83;;;;;;;4.78;nan;-23950.16;5033287;28;20604;-83
2022/11/28 05:26:19;;;;;;;2.83;2.23;;;;;;;4.80;nan;-23950.72;5026806;28;20601;-80
2022/11/28 05:28:46;;;;;;;3.53;3.03;;;;;;;5.00;nan;-23956.13;5032624;28;20183;-80
2022/11/28 05:31:13;;;;;;;5.40;3.03;;;;;;;4.78;nan;-23950.16;5011926;28;20183;-81
2022/11/28 05:33:39;;;;;;;5.30;2.90;;;;;;;4.09;nan;-23930.50;5013014;28;20261;-82
2022/11/28 05:36:09;;;;;;;4.60;3.33;;;;;;;4.60;nan;-23944.88;5027691;28;20219;-79
2022/11/28 05:38:35;;;;;;;4.87;2.50;;;;;;;4.83;nan;-23951.56;5011795;28;20319;-77
2022/11/28 05:41:01;;;;;;;4.03;2.97;;;;;;;4.88;nan;-23952.84;5011737;28;20255;-79
2022/11/28 05:43:27;;;;;;;5.20;3.27;;;;;;;4.91;nan;-23953.72;5012328;28;20234;-76
2022/11/28 05:45:53;;;;;;;3.93;3.23;;;;;;;4.93;nan;-23954.28;5012191;28;20237;-79
2022/11/28 05:48:19;;;;;;;3.10;2.53;;;;;;;4.55;nan;-23943.47;5011922;28;20182;-79
2022/11/28 05:50:44;;;;;;;3.90;2.50;;;;;;;4.81;nan;-23950.84;5011043;28;20299;-78
2022/11/28 05:53:10;;;;;;;5.80;3.37;;;;;;;4.81;nan;-23950.84;5012061;28;20502;-77
2022/11/28 05:55:37;;;;;;;7.20;3.90;;;;;;;5.00;nan;-23956.25;5012293;28;20208;-79
2022/11/28 05:58:03;;;;;;;5.33;3.17;;;;;;;5.01;nan;-23956.56;5024112;28;20179;-80
2022/11/28 06:00:28;;;;;;;6.20;3.10;;;;;;;4.91;nan;-23953.72;5031721;28;20163;-81
2022/11/28 06:02:54;;;;;;;5.80;3.33;;;;;;;4.64;nan;-23946.03;5032320;28;20289;-78
2022/11/28 06:05:19;;;;;;;5.33;3.00;;;;;;;4.89;nan;-23953.13;5030527;28;20171;-80
2022/11/28 06:07:45;;;;;;;5.57;3.50;;;;;;;4.98;nan;-23955.69;5031487;28;20190;-77
2022/11/28 06:10:10;;;;;;;8.37;3.50;;;;;;;4.92;nan;-23954.00;5030036;28;20202;-79
2022/11/28 06:12:35;;;;;;;3.17;2.40;;;;;;;5.07;nan;-23958.25;5030666;28;20179;-77
2022/11/28 06:15:01;;;;;;;4.83;3.03;;;;;;;5.09;nan;-23958.69;5031406;28;20229;-78
2022/11/28 06:17:27;;;;;;;6.17;3.13;;;;;;;4.93;nan;-23954.28;5030373;28;20543;-83
2022/11/28 06:19:52;;;;;;;7.97;3.30;;;;;;;4.93;nan;-23954.28;5029062;28;20248;-75
2022/11/28 06:22:17;;;;;;;3.37;3.07;;;;;;;5.03;nan;-23957.13;5030725;28;20203;-78
2022/11/28 06:24:43;;;;;;;4.77;3.57;;;;;;;5.02;nan;-23956.84;5030407;28;20179;-77
2022/11/28 06:27:08;;;;;;;4.87;3.33;;;;;;;5.00;nan;-23956.25;5030085;28;20179;-77
2022/11/28 06:29:34;;;;;;;4.20;3.20;;;;;;;4.93;nan;-23954.28;5031567;28;20175;-79
2022/11/28 06:31:59;;;;;;;4.10;3.03;;;;;;;5.15;nan;-23960.41;5031796;28;20513;-78
2022/11/28 06:34:25;;;;;;;4.70;2.90;;;;;;;4.72;nan;-23948.31;5031658;28;20203;-79
2022/11/28 06:36:51;;;;;;;2.93;2.37;;;;;;;5.09;nan;-23958.81;5031376;28;20175;-79
2022/11/28 06:39:16;;;;;;;3.47;2.67;;;;;;;5.11;nan;-23959.41;5030393;28;20178;-78
2022/11/28 06:41:42;;;;;;;2.80;2.07;;;;;;;5.14;nan;-23960.09;5030229;28;20163;-78
2022/11/28 06:44:13;;;;;;;3.67;2.50;;;;;;;4.72;nan;-23948.31;5031923;28;20178;-80
2022/11/28 06:46:38;;;;;;;2.87;2.27;;;;;;;5.04;nan;-23957.25;5031363;28;20243;-77
2022/11/28 06:49:04;;;;;;;4.53;3.00;;;;;;;4.95;nan;-23954.84;5029275;28;20314;-77
2022/11/28 06:51:29;;;;;;;4.97;2.33;;;;;;;4.79;nan;-23950.44;5029284;28;20190;-81
2022/11/28 06:53:55;;;;;;;5.73;2.97;;;;;;;5.14;nan;-23960.25;5030925;28;20243;-76
2022/11/28 06:56:20;;;;;;;5.73;3.10;;;;;;;4.62;nan;-23945.59;5032962;28;20702;-79
2022/11/28 06:58:46;;;;;;;2.73;2.33;;;;;;;5.17;nan;-23961.09;5035661;28;20183;-78
2022/11/28 07:01:15;;;;;;;4.90;3.43;;;;;;;4.92;nan;-23953.84;5035732;28;20197;-80
2022/11/28 07:03:41;;;;;;;4.87;3.10;;;;;;;4.85;nan;-23952.16;5034478;28;20182;-77
2022/11/28 07:06:07;;;;;;;5.23;3.70;;;;;;;4.78;nan;-23950.00;5034099;28;20180;-78
2022/11/28 07:08:33;;;;;;;6.03;3.07;;;;;;;4.99;nan;-23956.00;5033890;28;20599;-81
2022/11/28 07:11:10;;;;;;;8.13;3.13;;;;;;;4.64;nan;-23946.03;5034993;28;20172;-77
2022/11/28 07:13:36;;;;;;;2.67;2.27;;;;;;;4.68;nan;-23947.31;5033511;28;20179;-82
2022/11/28 07:16:02;;;;;;;8.10;4.23;;;;;;;4.62;nan;-23945.47;5034599;28;20353;-78
2022/11/28 07:18:27;;;;;;;3.87;2.87;;;;;;;4.69;nan;-23947.44;5034853;28;20186;-80
2022/11/28 07:20:53;;;;;;;4.57;2.80;;;;;;;4.64;nan;-23946.16;5033410;28;20168;-82
2022/11/28 07:23:18;;;;;;;3.07;2.53;;;;;;;4.60;nan;-23945.03;5033272;28;20595;-80
2022/11/28 07:25:44;;;;;;;2.83;2.47;;;;;;;4.77;nan;-23949.72;5034137;28;20252;-79
2022/11/28 07:28:09;;;;;;;3.33;2.70;;;;;;;4.59;nan;-23944.75;5033268;28;20183;-79
2022/11/28 07:30:34;;;;;;;2.33;2.13;;;;;;;4.30;nan;-23936.63;5033069;28;20176;-80
2022/11/28 07:33:00;;;;;;;5.97;3.17;;;;;;;4.25;nan;-23935.22;5034899;28;20266;-83
2022/11/28 07:35:25;;;;;;;3.70;3.33;;;;;;;4.62;nan;-23945.47;5033872;28;20231;-79
2022/11/28 07:37:51;;;;;;;5.47;3.50;;;;;;;4.67;nan;-23947.03;5033706;28;20556;-81
2022/11/28 07:40:18;;;;;;;4.33;3.03;;;;;;;4.17;nan;-23932.78;5034363;28;20256;-81
2022/11/28 07:42:44;;;;;;;5.10;3.47;;;;;;;4.68;nan;-23947.31;5034549;28;20230;-80
2022/11/28 07:45:10;;;;;;;3.80;2.87;;;;;;;4.55;nan;-23943.59;5032698;28;20179;-81
2022/11/28 07:47:35;;;;;;;4.37;2.80;;;;;;;4.66;nan;-23946.75;5033308;28;20657;-81
2022/11/28 07:50:01;;;;;;;4.60;3.23;;;;;;;4.83;nan;-23951.56;5032895;28;20269;-82
2022/11/28 07:52:26;;;;;;;4.63;2.97;;;;;;;4.82;nan;-23951.16;5032495;28;20270;-80
2022/11/28 07:54:52;;;;;;;4.00;2.97;;;;;;;4.76;nan;-23949.44;5033259;28;20207;-82
2022/11/28 07:57:17;;;;;;;4.40;2.83;;;;;;;4.92;nan;-23954.00;5033613;28;20174;-83
2022/11/28 07:59:43;;;;;;;4.03;2.67;;;;;;;4.55;nan;-23943.59;5032609;28;20182;-83
2022/11/28 08:02:09;;;;;;;3.33;2.80;;;;;;;4.65;nan;-23946.31;5034274;28;20229;-79
2022/11/28 08:04:36;;;;;;;2.93;2.30;;;;;;;4.83;nan;-23951.56;5033702;28;20179;-81
2022/11/28 08:07:01;;;;;;;2.43;2.17;;;;;;;4.99;nan;-23956.00;5030298;28;20280;-82
2022/11/28 08:09:27;;;;;;;3.20;2.33;;;;;;;4.90;nan;-23953.44;5033779;28;20220;-84
2022/11/28 08:11:52;;;;;;;1.97;1.83;;;;;;;4.85;nan;-23952.16;5032863;28;20171;-84
2022/11/28 08:14:18;;;;;;;3.37;2.77;;;;;;;4.69;nan;-23947.44;5032241;28;20175;-81
2022/11/28 08:16:44;;;;;;;3.17;2.67;;;;;;;5.13;nan;-23959.97;5032440;28;20329;-84
2022/11/28 08:19:10;;;;;;;3.30;2.23;;;;;;;4.99;nan;-23956.00;5032197;28;20557;-79
2022/11/28 08:21:37;;;;;;;3.57;2.50;;;;;;;5.14;nan;-23960.25;5032131;28;20557;-75
2022/11/28 08:24:04;;;;;;;3.87;2.50;;;;;;;4.68;nan;-23947.31;5033406;28;20205;-83
2022/11/28 08:26:31;;;;;;;5.77;2.80;;;;;;;5.32;nan;-23965.22;5032082;28;20175;-81
2022/11/28 08:28:58;;;;;;;2.10;1.90;;;;;;;5.27;nan;-23963.94;5033811;28;20217;-83
2022/11/28 08:31:35;;;;;;;2.83;2.50;;;;;;;5.36;nan;-23966.38;5033757;28;20179;-83
2022/11/28 08:34:04;;;;;;;3.30;2.23;;;;;;;5.38;nan;-23966.78;5033421;28;20638;-80
2022/11/28 08:36:30;;;;;;;3.10;2.43;;;;;;;5.24;nan;-23963.09;5033137;28;20670;-81
2022/11/28 08:38:55;;;;;;;3.00;2.33;;;;;;;5.51;nan;-23970.47;5032664;28;20176;-80
2022/11/28 08:41:22;;;;;;;5.07;3.00;;;;;;;5.03;nan;-23957.13;5032484;28;20176;-77
2022/11/28 08:43:47;;;;;;;4.30;2.27;;;;;;;5.23;nan;-23962.81;5032370;28;20187;-78
2022/11/28 08:46:15;;;;;;;2.20;2.00;;;;;;;5.27;nan;-23963.94;5033219;28;20171;-77
2022/11/28 08:48:41;;;;;;;5.23;2.77;;;;;;;5.43;nan;-23968.34;5032280;28;20199;-78
2022/11/28 08:51:12;;;;;;;2.53;2.30;;;;;;;1.40;nan;-23854.59;5030970;28;20187;-76
2022/11/28 08:53:37;;;;;;;2.83;2.33;;;;;;;5.42;nan;-23967.94;5031478;28;20179;-77
2022/11/28 08:56:03;;;;;;;2.40;2.20;;;;;;;5.00;nan;-23956.25;5031196;28;20641;-78
2022/11/28 08:58:28;;;;;;;2.80;2.13;;;;;;;5.18;nan;-23961.38;5032792;28;20190;-79
2022/11/28 09:00:54;;;;;;;3.27;2.93;;;;;;;5.51;nan;-23970.47;5031360;28;20171;-77
2022/11/28 09:03:19;;;;;;;4.20;2.87;;;;;;;5.53;nan;-23971.19;5033787;28;20234;-78
2022/11/28 09:05:46;;;;;;;2.30;2.10;;;;;;;5.31;nan;-23965.09;5028200;28;20710;-79
2022/11/28 09:08:13;;;;;;;2.57;2.37;;;;;;;5.77;nan;-23977.88;5023702;28;20256;-79
2022/11/28 09:10:40;;;;;;;3.30;2.33;;;;;;;5.58;nan;-23972.63;5031597;28;20186;-77
2022/11/28 09:13:07;;;;;;;3.03;2.33;;;;;;;5.60;nan;-23973.03;5032868;28;20249;-81
2022/11/28 09:15:33;;;;;;;5.13;2.30;;;;;;;5.66;nan;-23974.91;5033048;28;20213;-79
2022/11/28 09:17:59;;;;;;;4.90;2.97;;;;;;;5.52;nan;-23970.91;5032473;28;20171;-77
2022/11/28 09:20:24;;;;;;;4.53;2.80;;;;;;;5.41;nan;-23967.78;5031201;28;20650;-80
2022/11/28 09:22:50;;;;;;;3.87;2.37;;;;;;;5.14;nan;-23960.25;5031560;28;20183;-79
2022/11/28 09:25:15;;;;;;;3.20;2.53;;;;;;;5.47;nan;-23969.34;5032891;28;20273;-79
2022/11/28 09:27:41;;;;;;;2.70;2.37;;;;;;;5.28;nan;-23964.22;5032548;28;20314;-76
2022/11/28 09:30:08;;;;;;;4.63;3.13;;;;;;;5.46;nan;-23969.22;5031361;28;20458;-77
2022/11/28 09:32:34;;;;;;;2.93;2.50;;;;;;;5.16;nan;-23960.81;5032066;28;20285;-81
2022/11/28 09:35:00;;;;;;;6.67;2.63;;;;;;;5.30;nan;-23964.66;5030982;28;20245;-78
2022/11/28 09:37:29;;;;;;;4.80;3.07;;;;;;;5.05;nan;-23957.69;5030760;28;20183;-78
2022/11/28 09:39:54;;;;;;;13.07;3.87;;;;;;;5.41;nan;-23967.66;5031854;28;20159;-78
2022/11/28 09:42:42;;;;;;;5.27;3.13;;;;;;;5.67;nan;-23975.19;5031379;28;20171;-76
2022/11/28 09:45:15;;;;;;;3.83;2.63;;;;;;;5.82;nan;-23979.16;5032177;28;20180;-77
2022/11/28 09:47:46;;;;;;;3.70;2.70;;;;;;;5.76;nan;-23977.75;5030665;28;20187;-77
2022/11/28 09:50:15;;;;;;;4.03;2.67;;;;;;;4.93;nan;-23954.28;5032500;28;20232;-79
2022/11/28 09:52:57;;;;;;;3.23;2.70;;;;;;;5.87;nan;-23980.59;5033442;28;20186;-79
2022/11/28 09:55:32;;;;;;;2.70;2.50;;;;;;;6.06;nan;-23986.13;5022413;28;20678;-76
2022/11/28 09:58:00;;;;;;;4.37;3.20;;;;;;;6.12;nan;-23987.69;5030755;28;20691;-78
2022/11/28 10:01:00;;;;;;;6.17;3.57;;;;;;;6.39;nan;-23995.22;5031779;28;20174;-80
2022/11/28 10:03:40;;;;;;;5.13;2.90;;;;;;;6.03;nan;-23985.28;5012504;28;20234;-78
2022/11/28 10:06:19;;;;;;;3.43;2.43;;;;;;;6.47;nan;-23997.63;5032027;28;20167;-76
2022/11/28 10:08:45;;;;;;;4.77;3.23;;;;;;;6.10;nan;-23987.13;5032061;28;20194;-79
2022/11/28 10:11:40;;;;;;;5.03;3.10;;;;;;;6.53;nan;-23999.31;5032216;28;20497;-79
2022/11/28 10:14:43;;;;;;;4.10;2.63;;;;;;;6.73;nan;-24004.72;5022801;28;20639;-80
2022/11/28 10:17:23;;;;;;;3.50;2.83;;;;;;;6.63;nan;-24002.03;5031718;28;20175;-79
2022/11/28 10:20:04;;;;;;;2.97;2.30;;;;;;;6.44;nan;-23996.63;5031718;28;20159;-78
2022/11/28 10:22:55;;;;;;;3.60;2.50;;;;;;;6.39;nan;-23995.22;5031494;28;20163;-78
2022/11/28 10:25:48;;;;;;;5.20;2.23;;;;;;;6.68;nan;-24003.44;5031820;28;20254;-80
2022/11/28 10:28:22;;;;;;;4.03;2.63;;;;;;;6.18;nan;-23989.53;5030716;28;20263;-78
2022/11/28 10:30:56;;;;;;;4.33;2.70;;;;;;;6.48;nan;-23997.75;5029371;28;20646;-79
2022/11/28 10:33:47;;;;;;;4.70;2.53;;;;;;;6.46;nan;-23997.19;5031575;28;20258;-78
2022/11/28 10:36:21;;;;;;;5.27;2.97;;;;;;;6.58;nan;-24000.75;5020534;28;20318;-77
2022/11/28 10:38:46;;;;;;;5.37;2.87;;;;;;;6.60;nan;-24001.19;5031431;28;20183;-80
2022/11/28 10:41:18;;;;;;;6.77;2.67;;;;;;;6.62;nan;-24001.75;5029716;28;20692;-78
2022/11/28 10:44:32;;;;;;;4.07;3.30;;;;;;;6.85;nan;-24008.25;5029950;28;20179;-78
2022/11/28 10:47:14;;;;;;;4.20;2.77;;;;;;;6.60;nan;-24001.19;5016885;28;20202;-78
2022/11/28 10:49:52;;;;;;;3.73;2.53;;;;;;;6.91;nan;-24009.81;5030294;28;20265;-76
2022/11/28 10:52:56;;;;;;;4.93;2.93;;;;;;;6.91;nan;-24009.97;5031295;28;20179;-81
2022/11/28 10:55:29;;;;;;;3.67;2.90;;;;;;;6.77;nan;-24005.84;5021599;28;20214;-81
2022/11/28 10:58:21;;;;;;;3.20;2.60;;;;;;;6.45;nan;-23996.91;5029891;28;20183;-80
2022/11/28 11:00:49;;;;;;;2.77;2.57;;;;;;;6.80;nan;-24006.84;5031488;28;20750;-80
2022/11/28 11:03:17;;;;;;;5.50;3.17;;;;;;;6.93;nan;-24010.53;5031216;28;20222;-79
2022/11/28 11:05:42;;;;;;;6.57;2.73;;;;;;;7.33;nan;-24021.59;5031840;28;20210;-80
2022/11/28 11:08:07;;;;;;;4.67;2.70;;;;;;;7.10;nan;-24015.34;5030906;28;20265;-76
2022/11/28 11:11:11;;;;;;;4.57;3.00;;;;;;;7.52;nan;-24026.97;5031705;28;20666;-77
2022/11/28 11:13:58;;;;;;;2.90;2.53;;;;;;;7.38;nan;-24023.00;5022161;28;20635;-78
2022/11/28 11:16:23;;;;;;;3.80;2.93;;;;;;;7.42;nan;-24024.28;5029887;28;20199;-78
2022/11/28 11:18:53;;;;;;;4.70;3.07;;;;;;;7.45;nan;-24025.13;5033174;28;20194;-81
2022/11/28 11:21:21;;;;;;;4.37;2.50;;;;;;;7.82;nan;-24035.34;5029992;28;20195;-80
2022/11/28 11:23:48;;;;;;;4.50;2.60;;;;;;;7.82;nan;-24035.34;5031343;28;20638;-77
2022/11/28 11:26:38;;;;;;;4.63;2.87;;;;;;;7.78;nan;-24034.34;5030749;28;20187;-79
2022/11/28 11:29:04;;;;;;;5.03;2.83;;;;;;;7.50;nan;-24026.56;5030320;28;20241;-79
2022/11/28 11:31:42;;;;;;;2.83;2.20;;;;;;;7.69;nan;-24031.81;5030800;28;20171;-79
2022/11/28 11:34:16;;;;;;;4.80;2.83;;;;;;;7.77;nan;-24033.94;5031166;28;20233;-80
2022/11/28 11:36:42;;;;;;;4.43;3.00;;;;;;;7.71;nan;-24032.38;5029155;28;20202;-77
2022/11/28 11:39:11;;;;;;;3.30;2.70;;;;;;;7.76;nan;-24033.78;5030421;28;20198;-81
2022/11/28 11:41:41;;;;;;;3.40;2.23;;;;;;;7.85;nan;-24036.19;5030167;28;20180;-78
2022/11/28 11:44:12;;;;;;;3.83;2.60;;;;;;;7.88;nan;-24037.19;5033841;28;20259;-82
2022/11/28 11:46:51;;;;;;;2.60;2.10;;;;;;;4.65;nan;-23946.44;5033065;28;20655;-78
2022/11/28 11:49:49;;;;;;;3.40;2.50;;;;;;;7.96;nan;-24039.31;5032098;28;20191;-77
2022/11/28 11:52:25;;;;;;;3.57;2.43;;;;;;;7.95;nan;-24039.16;5033862;28;20167;-77
2022/11/28 11:54:57;;;;;;;3.97;2.73;;;;;;;8.01;nan;-24040.72;5033802;28;20199;-74
2022/11/28 11:57:38;;;;;;;3.87;2.23;;;;;;;7.83;nan;-24035.78;5031140;28;20179;-81
2022/11/28 12:00:15;;;;;;;2.87;2.23;;;;;;;7.78;nan;-24034.22;5034100;28;20198;-79
2022/11/28 12:02:55;;;;;;;3.07;2.37;;;;;;;7.33;nan;-24021.75;5032578;28;20231;-78
2022/11/28 12:05:30;;;;;;;4.60;2.70;;;;;;;7.71;nan;-24032.22;5034269;28;20673;-80
2022/11/28 12:08:18;;;;;;;4.53;3.30;;;;;;;7.47;nan;-24025.72;5034296;28;20175;-79
2022/11/28 12:10:49;;;;;;;2.70;2.50;;;;;;;7.10;nan;-24015.34;5033788;28;20163;-79
2022/11/28 12:13:23;;;;;;;3.30;2.90;;;;;;;7.60;nan;-24029.25;5034182;28;20163;-76